createdAt,value
2019-02-17T00:01:08.523Z,4.30
2019-02-17T00:03:46.034Z,4.30
2019-02-17T00:06:25.850Z,4.20
2019-02-17T00:09:03.410Z,4.20
2019-02-17T00:11:41.054Z,4.20
2019-02-17T00:14:18.576Z,4.30
2019-02-17T00:16:56.106Z,4.20
2019-02-17T00:19:33.633Z,4.30
2019-02-17T00:22:20.436Z,4.40
2019-02-17T00:24:57.972Z,4.40
2019-02-17T00:27:35.463Z,4.40
2019-02-17T00:30:13.095Z,4.30
2019-02-17T00:33:00.109Z,4.30
2019-02-17T00:35:37.680Z,4.20
2019-02-17T00:38:15.195Z,4.10
2019-02-17T00:40:53.843Z,4.10
2019-02-17T00:43:31.343Z,4.00
2019-02-17T00:46:08.892Z,4.00
2019-02-17T00:48:46.400Z,3.90
2019-02-17T00:51:24.004Z,3.90
2019-02-17T00:54:01.519Z,3.90
2019-02-17T00:56:39.060Z,3.80
2019-02-17T00:59:16.596Z,3.80
2019-02-17T01:01:57.438Z,3.80
2019-02-17T01:04:34.966Z,3.80
2019-02-17T01:07:12.476Z,3.70
2019-02-17T01:09:50.001Z,3.70
2019-02-17T01:12:27.579Z,3.70
2019-02-17T01:15:05.116Z,3.70
2019-02-17T01:17:42.624Z,3.60
2019-02-17T01:20:26.547Z,3.60
2019-02-17T01:23:04.063Z,3.60
2019-02-17T01:25:41.645Z,3.60
2019-02-17T01:28:19.143Z,3.60
2019-02-17T01:31:04.815Z,3.60
2019-02-17T01:33:42.330Z,3.60
2019-02-17T01:36:19.864Z,3.60
2019-02-17T01:38:57.354Z,3.60
2019-02-17T01:41:35.058Z,3.50
2019-02-17T01:44:12.583Z,3.50
2019-02-17T01:46:50.101Z,3.50
2019-02-17T01:49:27.619Z,3.50
2019-02-17T01:52:07.626Z,3.40
2019-02-17T01:54:45.173Z,3.40
2019-02-17T01:57:22.685Z,3.40
2019-02-17T02:00:00.370Z,3.40
2019-02-17T02:02:37.737Z,3.40
2019-02-17T02:05:15.270Z,3.40
2019-02-17T02:07:52.787Z,3.30
2019-02-17T02:10:33.734Z,3.30
2019-02-17T02:13:11.240Z,3.30
2019-02-17T02:15:48.767Z,3.20
2019-02-17T02:18:26.275Z,3.20
2019-02-17T02:21:03.888Z,3.10
2019-02-17T02:23:41.406Z,3.10
2019-02-17T02:26:18.914Z,3.00
2019-02-17T02:28:56.433Z,3.00
2019-02-17T02:31:34.058Z,2.90
2019-02-17T02:34:11.558Z,2.90
2019-02-17T02:36:49.092Z,2.90
2019-02-17T02:39:26.574Z,2.90
2019-02-17T02:42:15.968Z,2.90
2019-02-17T02:44:53.492Z,2.90
2019-02-17T02:47:31.021Z,2.80
2019-02-17T02:50:18.221Z,2.70
2019-02-17T02:52:55.729Z,2.70
2019-02-17T02:55:33.257Z,2.60
2019-02-17T02:58:10.784Z,2.50
2019-02-17T03:01:05.905Z,2.50
2019-02-17T03:03:45.960Z,2.40
2019-02-17T03:06:33.353Z,2.30
2019-02-17T03:09:10.881Z,2.30
2019-02-17T03:12:28.726Z,2.30
2019-02-17T03:15:06.267Z,2.30
2019-02-17T03:17:43.802Z,2.30
2019-02-17T03:20:24.566Z,2.30
2019-02-17T03:23:02.066Z,2.40
2019-02-17T03:25:39.623Z,2.40
2019-02-17T03:28:17.131Z,2.40
2019-02-17T03:30:54.722Z,2.40
2019-02-17T03:33:32.216Z,2.40
2019-02-17T03:36:09.736Z,2.40
2019-02-17T03:38:47.235Z,2.40
2019-02-17T03:41:34.551Z,2.40
2019-02-17T03:44:12.049Z,2.40
2019-02-17T03:46:49.583Z,2.40
2019-02-17T03:49:27.097Z,2.30
2019-02-17T03:52:15.014Z,2.30
2019-02-17T03:54:52.516Z,2.30
2019-02-17T03:57:30.042Z,2.30
2019-02-17T04:00:17.032Z,2.20
2019-02-17T04:02:48.531Z,2.20
2019-02-17T04:05:26.039Z,2.20
2019-02-17T04:08:03.565Z,2.20
2019-02-17T04:10:57.628Z,2.20
2019-02-17T04:13:35.139Z,2.20
2019-02-17T04:16:12.664Z,2.20
2019-02-17T04:18:50.182Z,2.20
2019-02-17T04:21:27.819Z,2.10
2019-02-17T04:24:05.326Z,2.10
2019-02-17T04:26:42.851Z,2.10
2019-02-17T04:29:20.349Z,2.10
2019-02-17T04:31:57.993Z,2.00
2019-02-17T04:34:35.503Z,2.00
2019-02-17T04:37:13.032Z,2.00
2019-02-17T04:39:50.663Z,2.00
2019-02-17T04:42:28.220Z,2.00
2019-02-17T04:45:05.727Z,2.00
2019-02-17T04:47:43.252Z,2.00
2019-02-17T04:50:27.670Z,2.00
2019-02-17T04:53:05.202Z,2.00
2019-02-17T04:55:42.735Z,2.00
2019-02-17T04:58:20.260Z,2.00
2019-02-17T05:00:57.856Z,2.00
2019-02-17T05:03:35.368Z,2.00
2019-02-17T05:06:12.864Z,2.00
2019-02-17T05:08:50.393Z,2.00
2019-02-17T05:11:28.034Z,2.00
2019-02-17T05:14:05.538Z,2.00
2019-02-17T05:16:43.047Z,2.00
2019-02-17T05:19:20.545Z,2.00
2019-02-17T05:21:58.085Z,2.00
2019-02-17T05:24:35.590Z,2.00
2019-02-17T05:27:13.160Z,2.00
2019-02-17T05:29:50.750Z,2.00
2019-02-17T05:32:28.287Z,2.00
2019-02-17T05:35:05.949Z,1.90
2019-02-17T05:37:43.456Z,1.90
2019-02-17T05:40:37.078Z,1.90
2019-02-17T05:43:14.627Z,1.90
2019-02-17T05:45:52.170Z,1.90
2019-02-17T05:48:29.679Z,1.90
2019-02-17T05:51:07.276Z,1.90
2019-02-17T05:53:44.808Z,1.80
2019-02-17T05:56:22.309Z,1.80
2019-02-17T05:58:59.849Z,1.80
2019-02-17T06:01:37.490Z,1.80
2019-02-17T06:04:15.005Z,1.80
2019-02-17T06:06:52.516Z,1.80
2019-02-17T06:09:30.135Z,1.70
2019-02-17T06:12:07.659Z,1.70
2019-02-17T06:14:45.166Z,1.70
2019-02-17T06:17:22.688Z,1.70
2019-02-17T06:20:00.332Z,1.70
2019-02-17T06:22:37.834Z,1.60
2019-02-17T06:25:15.324Z,1.60
2019-02-17T06:27:52.853Z,1.60
2019-02-17T06:30:30.481Z,1.60
2019-02-17T06:33:08.012Z,1.60
2019-02-17T06:35:45.522Z,1.60
2019-02-17T06:38:23.042Z,1.70
2019-02-17T06:41:00.656Z,1.80
2019-02-17T06:43:38.169Z,1.80
2019-02-17T06:46:19.379Z,1.90
2019-02-17T06:48:56.926Z,1.90
2019-02-17T06:51:44.789Z,1.90
2019-02-17T06:54:22.322Z,2.00
2019-02-17T06:57:07.394Z,2.10
2019-02-17T06:59:45.008Z,2.10
2019-02-17T07:02:22.518Z,2.10
2019-02-17T07:05:17.985Z,2.20
2019-02-17T07:07:55.499Z,2.20
2019-02-17T07:10:46.217Z,2.30
2019-02-17T07:13:23.751Z,2.30
2019-02-17T07:16:01.269Z,2.40
2019-02-17T07:18:38.795Z,2.50
2019-02-17T07:21:22.695Z,2.50
2019-02-17T07:24:00.254Z,2.60
2019-02-17T07:26:37.745Z,2.70
2019-02-17T07:29:21.348Z,2.70
2019-02-17T07:31:59.112Z,2.80
2019-02-17T07:34:36.633Z,2.90
2019-02-17T07:37:14.618Z,3.00
2019-02-17T07:39:52.242Z,3.10
2019-02-17T07:42:29.944Z,3.30
2019-02-17T07:45:07.624Z,3.40
2019-02-17T07:47:45.149Z,3.50
2019-02-17T07:50:25.986Z,3.70
2019-02-17T07:53:03.538Z,3.80
2019-02-17T07:55:41.078Z,4.00
2019-02-17T07:58:18.637Z,4.10
2019-02-17T08:00:56.267Z,4.30
2019-02-17T08:03:33.827Z,4.40
2019-02-17T08:06:11.350Z,4.60
2019-02-17T08:08:49.016Z,4.70
2019-02-17T08:11:26.753Z,4.80
2019-02-17T08:14:04.333Z,5.00
2019-02-17T08:16:41.874Z,5.10
2019-02-17T08:19:20.494Z,5.20
2019-02-17T08:21:58.362Z,5.30
2019-02-17T08:24:35.928Z,5.40
2019-02-17T08:27:13.462Z,5.50
2019-02-17T08:29:55.075Z,5.70
2019-02-17T08:32:32.564Z,5.80
2019-02-17T08:35:10.161Z,5.90
2019-02-17T08:37:47.698Z,6.00
2019-02-17T08:40:44.312Z,6.10
2019-02-17T08:43:21.822Z,6.20
2019-02-17T08:45:59.339Z,6.30
2019-02-17T08:48:36.860Z,6.40
2019-02-17T08:51:15.777Z,6.50
2019-02-17T08:53:53.798Z,6.50
2019-02-17T08:56:31.309Z,6.60
2019-02-17T08:59:08.927Z,6.70
2019-02-17T09:01:49.756Z,6.80
2019-02-17T09:04:27.303Z,7.00
2019-02-17T09:07:06.455Z,7.10
2019-02-17T09:09:52.529Z,7.20
2019-02-17T09:12:30.050Z,7.40
2019-02-17T09:15:08.643Z,7.50
2019-02-17T09:17:46.158Z,7.60
2019-02-17T09:21:10.838Z,7.70
2019-02-17T09:23:48.384Z,7.80
2019-02-17T09:26:25.897Z,7.90
2019-02-17T09:29:09.846Z,8.00
2019-02-17T09:31:47.428Z,8.10
2019-02-17T09:34:24.992Z,8.30
2019-02-17T09:37:02.497Z,8.30
2019-02-17T09:40:08.842Z,8.40
2019-02-17T09:42:46.447Z,8.60
2019-02-17T09:45:23.999Z,8.60
2019-02-17T09:48:01.605Z,8.70
2019-02-17T09:51:49.964Z,8.90
2019-02-17T09:54:27.518Z,9.00
2019-02-17T09:57:05.057Z,9.10
2019-02-17T10:00:17.863Z,9.20
2019-02-17T10:02:55.416Z,9.30
2019-02-17T10:05:33.002Z,9.40
2019-02-17T10:08:10.548Z,9.50
2019-02-17T10:10:48.171Z,9.50
2019-02-17T10:13:25.720Z,9.60
2019-02-17T10:16:03.287Z,9.70
2019-02-17T10:18:54.225Z,9.80
2019-02-17T10:21:31.831Z,9.90
2019-02-17T10:24:09.540Z,10.00
2019-02-17T10:26:51.159Z,10.10
2019-02-17T10:29:28.808Z,10.20
2019-02-17T10:32:06.408Z,10.30
2019-02-17T10:34:44.002Z,10.40
2019-02-17T10:37:21.602Z,10.50
2019-02-17T10:40:00.298Z,10.70
2019-02-17T10:42:37.790Z,10.80
2019-02-17T10:45:15.523Z,10.90
2019-02-17T10:47:53.081Z,11.00
2019-02-17T10:50:30.845Z,11.10
2019-02-17T10:53:08.668Z,11.20
2019-02-17T10:55:46.248Z,11.30
2019-02-17T10:58:41.410Z,11.50
2019-02-17T11:01:19.007Z,11.60
2019-02-17T11:04:12.313Z,11.70
2019-02-17T11:06:49.936Z,11.80
2019-02-17T11:13:24.693Z,12.10
2019-02-17T11:16:02.283Z,12.30
2019-02-17T11:22:37.419Z,12.50
2019-02-17T11:25:15.017Z,12.70
2019-02-17T11:27:52.615Z,12.80
2019-02-17T11:30:30.209Z,13.00
2019-02-17T11:33:07.981Z,13.20
2019-02-17T11:35:45.601Z,13.50
2019-02-17T11:39:20.605Z,13.80
2019-02-17T11:41:58.243Z,14.00
2019-02-17T11:44:35.843Z,14.40
2019-02-17T11:47:13.402Z,14.70
2019-02-17T11:50:07.549Z,15.00
2019-02-17T11:52:45.123Z,15.20
2019-02-17T11:55:22.955Z,15.50
2019-02-17T11:58:06.665Z,15.80
2019-02-17T12:00:44.228Z,16.00
2019-02-17T12:03:21.887Z,16.30
2019-02-17T12:05:59.549Z,16.60
2019-02-17T12:12:34.036Z,17.10
2019-02-17T12:15:12.642Z,17.30
2019-02-17T12:17:50.176Z,17.50
2019-02-17T12:20:47.273Z,17.80
2019-02-17T12:23:34.783Z,17.90
2019-02-17T12:26:21.711Z,18.00
2019-02-17T12:29:19.052Z,18.30
2019-02-17T12:31:58.159Z,18.90
2019-02-17T12:34:35.580Z,20.40
2019-02-17T12:37:13.160Z,21.50
2019-02-17T12:39:50.809Z,22.20
2019-02-17T12:42:28.358Z,22.40
2019-02-17T12:45:05.958Z,22.50
2019-02-17T12:47:43.444Z,22.70
2019-02-17T12:50:21.016Z,22.90
2019-02-17T12:52:58.539Z,23.10
2019-02-17T12:55:36.072Z,23.10
2019-02-17T12:58:30.018Z,23.20
2019-02-17T13:01:04.600Z,23.50
2019-02-17T13:03:42.134Z,24.00
2019-02-17T13:06:19.691Z,24.50
2019-02-17T13:08:57.469Z,24.90
2019-02-17T13:11:35.016Z,25.40
2019-02-17T13:14:12.536Z,25.80
2019-02-17T13:16:50.063Z,26.50
2019-02-17T13:19:27.715Z,27.00
2019-02-17T13:22:05.251Z,27.30
2019-02-17T13:24:42.797Z,27.60
2019-02-17T13:27:20.342Z,28.10
2019-02-17T13:29:57.834Z,28.70
2019-02-17T13:32:35.435Z,29.10
2019-02-17T13:35:12.951Z,29.60
2019-02-17T13:37:51.551Z,29.90
2019-02-17T13:40:29.122Z,30.00
2019-02-17T13:43:06.636Z,30.30
2019-02-17T13:45:44.823Z,30.70
2019-02-17T13:48:21.709Z,31.10
2019-02-17T13:50:59.227Z,31.30
2019-02-17T13:53:36.711Z,31.30
2019-02-17T13:56:14.269Z,31.20
2019-02-17T13:58:51.873Z,31.30
2019-02-17T14:01:29.421Z,31.40
2019-02-17T14:04:06.928Z,31.20
2019-02-17T14:06:44.446Z,31.10
2019-02-17T14:09:22.042Z,30.90
2019-02-17T14:11:59.576Z,30.80
2019-02-17T14:14:38.783Z,30.80
2019-02-17T14:17:14.611Z,31.10
2019-02-17T14:19:52.113Z,31.30
2019-02-17T14:22:29.634Z,31.60
2019-02-17T14:25:07.140Z,31.80
2019-02-17T14:27:47.009Z,32.10
2019-02-17T14:30:24.285Z,32.50
2019-02-17T14:33:01.805Z,32.80
2019-02-17T14:35:39.343Z,32.80
2019-02-17T14:38:33.408Z,32.90
2019-02-17T14:41:10.955Z,32.70
2019-02-17T14:43:48.481Z,32.60
2019-02-17T14:46:26.003Z,32.60
2019-02-17T14:49:07.866Z,32.50
2019-02-17T14:51:45.423Z,32.50
2019-02-17T14:54:23.007Z,32.20
2019-02-17T14:57:00.530Z,32.00
2019-02-17T14:59:38.297Z,31.80
2019-02-17T15:02:29.950Z,31.90
2019-02-17T15:05:07.752Z,32.00
2019-02-17T15:07:51.096Z,31.90
2019-02-17T15:10:28.990Z,31.60
2019-02-17T15:17:23.348Z,31.20
2019-02-17T15:20:00.901Z,31.20
2019-02-17T15:22:38.454Z,31.10
2019-02-17T15:25:16.004Z,30.70
2019-02-17T15:28:03.323Z,30.30
2019-02-17T15:30:40.889Z,29.90
2019-02-17T15:33:18.427Z,29.30
2019-02-17T15:35:56.003Z,28.90
2019-02-17T15:39:31.699Z,28.50
2019-02-17T15:42:09.405Z,28.10
2019-02-17T15:44:46.973Z,27.20
2019-02-17T15:47:34.199Z,26.40
2019-02-17T15:50:12.362Z,25.70
2019-02-17T15:52:49.876Z,25.00
2019-02-17T15:55:27.408Z,24.30
2019-02-17T15:58:23.653Z,23.50
2019-02-17T16:01:01.193Z,22.80
2019-02-17T16:03:38.827Z,22.10
2019-02-17T16:06:16.499Z,21.50
2019-02-17T16:08:55.236Z,20.90
2019-02-17T16:11:32.856Z,20.40
2019-02-17T16:14:10.416Z,19.80
2019-02-17T16:16:48.170Z,19.40
2019-02-17T16:19:25.724Z,19.00
2019-02-17T16:22:03.275Z,18.60
2019-02-17T16:24:40.870Z,18.20
2019-02-17T16:27:37.263Z,17.70
2019-02-17T16:30:16.898Z,17.30
2019-02-17T16:32:54.510Z,16.90
2019-02-17T16:35:32.487Z,16.40
2019-02-17T16:38:10.813Z,16.10
2019-02-17T16:40:48.439Z,15.60
2019-02-17T16:43:26.434Z,15.10
2019-02-17T16:46:23.286Z,14.80
2019-02-17T16:49:09.387Z,14.50
2019-02-17T16:51:46.973Z,14.20
2019-02-17T16:54:24.534Z,13.90
2019-02-17T16:57:08.639Z,13.60
2019-02-17T16:59:46.251Z,13.40
2019-02-17T17:02:23.819Z,13.10
2019-02-17T17:05:01.358Z,12.90
2019-02-17T17:08:19.699Z,12.60
2019-02-17T17:10:57.227Z,12.40
2019-02-17T17:13:34.810Z,12.20
2019-02-17T17:16:12.373Z,12.00
2019-02-17T17:18:55.228Z,11.80
2019-02-17T17:21:32.739Z,11.70
2019-02-17T17:24:10.333Z,11.40
2019-02-17T17:27:12.708Z,11.20
2019-02-17T17:29:54.006Z,11.10
2019-02-17T17:32:31.574Z,10.90
2019-02-17T17:35:09.959Z,10.80
2019-02-17T17:37:50.853Z,10.70
2019-02-17T17:40:28.448Z,10.60
2019-02-17T17:43:06.003Z,10.50
2019-02-17T17:45:43.551Z,10.40
2019-02-17T17:48:32.240Z,10.30
2019-02-17T17:51:10.946Z,10.20
2019-02-17T17:53:52.196Z,10.10
2019-02-17T17:59:12.526Z,9.90
2019-02-17T18:01:50.021Z,9.80
2019-02-17T18:04:27.527Z,9.60
2019-02-17T18:07:05.032Z,9.50
2019-02-17T18:09:42.570Z,9.30
2019-02-17T18:12:20.124Z,9.20
2019-02-17T18:14:57.647Z,9.10
2019-02-17T18:17:54.823Z,8.90
2019-02-17T18:20:30.304Z,8.80
2019-02-17T18:23:28.021Z,8.70
2019-02-17T18:26:05.705Z,8.60
2019-02-17T18:28:46.480Z,8.60
2019-02-17T18:31:23.988Z,8.50
2019-02-17T18:34:01.523Z,8.40
2019-02-17T18:36:39.117Z,8.40
2019-02-17T18:39:16.737Z,8.40
2019-02-17T18:41:54.136Z,8.40
2019-02-17T18:44:31.660Z,8.40
2019-02-17T18:47:19.941Z,8.50
2019-02-17T18:49:56.601Z,8.50
2019-02-17T18:52:34.135Z,8.50
2019-02-17T18:55:12.614Z,8.50
2019-02-17T18:57:51.193Z,8.50
2019-02-17T19:00:27.812Z,8.50
2019-02-17T19:03:05.322Z,8.60
2019-02-17T19:05:42.854Z,8.60
2019-02-17T19:08:37.209Z,8.60
2019-02-17T19:11:14.719Z,8.60
2019-02-17T19:13:52.286Z,8.50
2019-02-17T19:16:34.287Z,8.50
2019-02-17T19:19:11.789Z,8.40
2019-02-17T19:21:49.292Z,8.40
2019-02-17T19:24:26.899Z,8.40
2019-02-17T19:27:08.986Z,8.40
2019-02-17T19:29:46.554Z,8.40
2019-02-17T19:32:24.072Z,8.40
2019-02-17T19:35:01.575Z,8.30
2019-02-17T19:37:42.186Z,8.30
2019-02-17T19:40:19.675Z,8.10
2019-02-17T19:42:57.203Z,8.10
2019-02-17T19:45:34.731Z,8.00
2019-02-17T19:48:13.301Z,7.80
2019-02-17T19:50:50.924Z,7.70
2019-02-17T19:53:28.464Z,7.60
2019-02-17T19:56:07.528Z,7.50
2019-02-17T19:58:43.448Z,7.40
2019-02-17T20:01:20.955Z,7.40
2019-02-17T20:04:04.121Z,7.30
2019-02-17T20:06:43.711Z,7.30
2019-02-17T20:09:21.499Z,7.30
2019-02-17T20:11:58.976Z,7.20
2019-02-17T20:14:37.636Z,7.10
2019-02-17T20:17:18.376Z,7.10
2019-02-17T20:19:55.923Z,7.00
2019-02-17T20:22:33.418Z,7.00
2019-02-17T20:25:10.969Z,7.00
2019-02-17T20:27:48.545Z,7.10
2019-02-17T20:30:26.042Z,7.00
2019-02-17T20:33:03.526Z,7.00
2019-02-17T20:35:41.036Z,7.00
2019-02-17T20:38:19.063Z,6.90
2019-02-17T20:40:56.649Z,6.80
2019-02-17T20:43:34.246Z,6.80
2019-02-17T20:46:20.520Z,6.70
2019-02-17T20:48:58.034Z,6.60
2019-02-17T20:51:35.538Z,6.50
2019-02-17T20:54:13.055Z,6.50
2019-02-17T20:57:03.702Z,6.50
2019-02-17T20:59:41.219Z,6.50
2019-02-17T21:02:18.723Z,6.40
2019-02-17T21:04:56.216Z,6.40
2019-02-17T21:07:43.692Z,6.40
2019-02-17T21:10:21.208Z,6.40
2019-02-17T21:12:58.687Z,6.40
2019-02-17T21:15:36.250Z,6.40
2019-02-17T21:18:13.725Z,6.40
2019-02-17T21:20:51.234Z,6.40
2019-02-17T21:23:28.719Z,6.40
2019-02-17T21:26:06.343Z,6.40
2019-02-17T21:28:43.818Z,6.30
2019-02-17T21:31:21.323Z,6.30
2019-02-17T21:33:58.868Z,6.30
2019-02-17T21:36:39.773Z,6.30
2019-02-17T21:39:17.271Z,6.30
2019-02-17T21:41:54.820Z,6.40
2019-02-17T21:44:32.390Z,6.30
2019-02-17T21:47:45.106Z,6.30
2019-02-17T21:50:22.616Z,6.30
2019-02-17T21:53:00.111Z,6.20
2019-02-17T21:55:40.949Z,6.20
2019-02-17T21:58:18.467Z,6.20
2019-02-17T22:00:55.998Z,6.20
2019-02-17T22:03:33.486Z,6.20
2019-02-17T22:06:11.123Z,6.20
2019-02-17T22:08:48.587Z,6.20
2019-02-17T22:11:26.092Z,6.20
2019-02-17T22:14:03.595Z,6.20
2019-02-17T22:16:47.848Z,6.20
2019-02-17T22:19:25.732Z,6.20
2019-02-17T22:22:03.242Z,6.20
2019-02-17T22:24:40.727Z,6.20
2019-02-17T22:27:21.587Z,6.30
2019-02-17T22:29:59.081Z,6.30
2019-02-17T22:32:36.582Z,6.20
2019-02-17T22:35:14.058Z,6.20
2019-02-17T22:37:51.566Z,6.10
2019-02-17T22:40:29.084Z,6.10
2019-02-17T22:43:06.583Z,6.10
2019-02-17T22:45:54.053Z,6.00
2019-02-17T22:48:31.550Z,6.00
2019-02-17T22:51:09.107Z,5.90
2019-02-17T22:53:46.586Z,5.80
2019-02-17T22:56:27.310Z,5.80
2019-02-17T22:59:04.793Z,5.70
2019-02-17T23:01:42.307Z,5.70
2019-02-17T23:04:19.787Z,5.60
2019-02-17T23:06:57.376Z,5.50
2019-02-17T23:09:34.843Z,5.50
2019-02-17T23:12:12.358Z,5.50
2019-02-17T23:14:49.828Z,5.40
2019-02-17T23:17:37.280Z,5.40
2019-02-17T23:20:14.781Z,5.40
2019-02-17T23:22:52.305Z,5.40
2019-02-17T23:25:39.128Z,5.40
2019-02-17T23:28:16.631Z,5.40
2019-02-17T23:30:54.143Z,5.40
2019-02-17T23:33:31.616Z,5.40
2019-02-17T23:36:15.270Z,5.40
2019-02-17T23:38:52.758Z,5.30
2019-02-17T23:41:30.297Z,5.30
2019-02-17T23:44:07.775Z,5.30
2019-02-17T23:46:55.146Z,5.20
2019-02-17T23:49:32.646Z,5.20
2019-02-17T23:52:10.161Z,5.10
2019-02-17T23:54:47.650Z,5.10
2019-02-17T23:57:28.818Z,5.10
